createdAt,value
2023-01-12T00:01:20.083Z,12.05
2023-01-12T00:02:52.104Z,11.77
2023-01-12T00:04:24.176Z,12.70
2023-01-12T00:05:59.137Z,12.52
2023-01-12T00:07:32.639Z,31.92
2023-01-12T00:09:06.753Z,26.20
2023-01-12T00:10:38.837Z,21.63
2023-01-12T00:12:11.939Z,18.98
2023-01-12T00:13:44.571Z,27.02
2023-01-12T00:15:16.718Z,42.28
2023-01-12T00:16:48.955Z,62.83
2023-01-12T00:18:21.015Z,53.22
2023-01-12T00:19:54.653Z,48.13
2023-01-12T00:21:26.756Z,47.40
2023-01-12T00:22:58.761Z,30.60
2023-01-12T00:24:34.260Z,21.90
2023-01-12T00:26:09.565Z,35.45
2023-01-12T00:27:41.599Z,40.60
2023-01-12T00:29:13.834Z,35.55
2023-01-12T00:30:45.893Z,24.08
2023-01-12T00:32:20.632Z,47.22
2023-01-12T00:33:55.469Z,26.67
2023-01-12T00:35:27.537Z,31.30
2023-01-12T00:37:02.650Z,44.33
2023-01-12T00:38:36.779Z,27.25
2023-01-12T00:40:10.126Z,31.40
2023-01-12T00:42:01.354Z,40.10
2023-01-12T00:43:52.147Z,20.17
2023-01-12T00:45:24.984Z,24.98
2023-01-12T00:46:59.400Z,26.27
2023-01-12T00:48:31.467Z,19.95
2023-01-12T00:50:03.712Z,22.15
2023-01-12T00:51:35.993Z,20.27
2023-01-12T00:53:08.028Z,19.83
2023-01-12T00:54:40.353Z,20.60
2023-01-12T00:56:12.446Z,23.90
2023-01-12T00:57:44.678Z,22.35
2023-01-12T00:59:16.708Z,16.30
2023-01-12T01:00:48.692Z,17.15
2023-01-12T01:02:21.183Z,15.75
2023-01-12T01:03:53.235Z,14.07
2023-01-12T01:05:25.285Z,17.10
2023-01-12T01:06:57.743Z,17.20
2023-01-12T01:08:30.409Z,16.83
2023-01-12T01:10:02.447Z,18.87
2023-01-12T01:11:35.558Z,19.00
2023-01-12T01:13:07.756Z,17.90
2023-01-12T01:14:39.854Z,21.60
2023-01-12T01:16:17.018Z,20.17
2023-01-12T01:17:49.089Z,17.13
2023-01-12T01:19:21.165Z,25.00
2023-01-12T01:20:53.242Z,21.75
2023-01-12T01:22:25.332Z,29.35
2023-01-12T01:23:57.426Z,23.25
2023-01-12T01:25:29.502Z,34.60
2023-01-12T01:27:01.494Z,34.15
2023-01-12T01:28:34.264Z,24.60
2023-01-12T01:30:06.858Z,32.30
2023-01-12T01:31:39.033Z,27.13
2023-01-12T01:33:11.392Z,24.65
2023-01-12T01:34:44.270Z,15.82
2023-01-12T01:36:16.453Z,21.60
2023-01-12T01:37:48.906Z,18.73
2023-01-12T01:39:20.868Z,17.25
2023-01-12T01:40:53.221Z,14.07
2023-01-12T01:42:28.493Z,12.98
2023-01-12T01:44:03.838Z,13.38
2023-01-12T01:45:35.905Z,14.55
2023-01-12T01:47:13.413Z,12.25
2023-01-12T01:48:45.779Z,12.98
2023-01-12T01:50:24.915Z,14.88
2023-01-12T01:52:06.637Z,12.63
2023-01-12T01:53:40.913Z,13.63
2023-01-12T01:55:16.781Z,13.95
2023-01-12T01:56:49.063Z,12.30
2023-01-12T01:58:24.974Z,15.95
2023-01-12T01:59:58.204Z,14.18
2023-01-12T02:01:34.031Z,14.50
2023-01-12T02:03:07.152Z,20.08
2023-01-12T02:04:39.422Z,19.42
2023-01-12T02:06:11.493Z,18.13
2023-01-12T02:07:43.597Z,16.60
2023-01-12T02:09:22.563Z,20.08
2023-01-12T02:10:55.426Z,18.77
2023-01-12T02:12:48.965Z,26.02
2023-01-12T02:14:47.240Z,20.13
2023-01-12T02:16:29.449Z,16.23
2023-01-12T02:18:24.829Z,26.70
2023-01-12T02:20:14.457Z,23.13
2023-01-12T02:22:10.304Z,19.35
2023-01-12T02:23:57.550Z,14.10
2023-01-12T02:25:48.305Z,16.90
2023-01-12T02:29:07.557Z,16.13
2023-01-12T02:30:47.613Z,19.00
2023-01-12T02:32:22.575Z,14.75
2023-01-12T02:34:16.266Z,15.57
2023-01-12T02:36:02.214Z,13.50
2023-01-12T02:37:51.221Z,14.05
2023-01-12T02:39:28.582Z,23.27
2023-01-12T02:41:42.395Z,15.90
2023-01-12T02:43:28.708Z,19.02
2023-01-12T02:45:08.903Z,17.92
2023-01-12T02:46:42.041Z,13.45
2023-01-12T02:48:19.042Z,19.23
2023-01-12T02:49:52.950Z,22.13
2023-01-12T02:51:37.820Z,18.13
2023-01-12T02:53:25.155Z,16.38
2023-01-12T02:54:58.141Z,14.45
2023-01-12T02:56:39.960Z,15.73
2023-01-12T02:58:13.931Z,12.27
2023-01-12T02:59:46.895Z,16.48
2023-01-12T03:01:20.911Z,15.07
2023-01-12T03:31:24.790Z,15.74
2023-01-12T03:32:57.171Z,8.80
2023-01-12T03:34:29.213Z,9.35
2023-01-12T03:36:40.322Z,9.38
2023-01-12T03:38:41.561Z,8.10
2023-01-12T03:40:19.448Z,11.20
2023-01-12T03:42:17.550Z,9.18
2023-01-12T03:43:55.987Z,9.13
2023-01-12T03:45:40.079Z,9.45
2023-01-12T03:48:57.641Z,9.40
2023-01-12T03:50:35.663Z,9.27
2023-01-12T03:52:08.726Z,10.80
2023-01-12T03:53:42.571Z,9.93
2023-01-12T03:55:18.344Z,9.25
2023-01-12T03:56:51.252Z,9.55
2023-01-12T03:58:24.674Z,8.77
2023-01-12T03:59:57.707Z,8.27
2023-01-12T04:01:29.791Z,9.65
2023-01-12T04:03:14.662Z,8.95
2023-01-12T04:04:46.756Z,8.57
2023-01-12T04:06:18.842Z,9.55
2023-01-12T04:07:50.887Z,9.65
2023-01-12T04:09:23.351Z,13.77
2023-01-12T04:10:56.509Z,16.23
2023-01-12T04:12:29.426Z,22.15
2023-01-12T04:14:01.578Z,16.30
2023-01-12T04:15:38.292Z,18.10
2023-01-12T04:17:13.732Z,15.13
2023-01-12T04:18:45.897Z,10.57
2023-01-12T04:20:18.196Z,12.15
2023-01-12T04:22:08.606Z,11.48
2023-01-12T04:23:40.751Z,9.05
2023-01-12T04:25:18.115Z,10.30
2023-01-12T04:26:50.084Z,8.48
2023-01-12T04:28:22.097Z,6.68
2023-01-12T04:29:54.225Z,7.85
2023-01-12T04:31:26.256Z,8.73
2023-01-12T04:32:59.061Z,10.23
2023-01-12T04:34:31.119Z,8.63
2023-01-12T04:36:03.243Z,9.10
2023-01-12T04:37:35.641Z,9.45
2023-01-12T04:39:07.768Z,9.07
2023-01-12T04:40:39.842Z,10.77
2023-01-12T04:42:31.767Z,10.20
2023-01-12T04:44:03.818Z,8.88
2023-01-12T04:45:39.540Z,9.20
2023-01-12T04:47:12.088Z,10.18
2023-01-12T04:48:44.575Z,11.85
2023-01-12T04:50:16.714Z,13.98
2023-01-12T04:51:48.722Z,13.05
2023-01-12T04:53:22.285Z,24.98
2023-01-12T04:58:01.051Z,8.27
2023-01-12T04:59:33.107Z,9.32
2023-01-12T05:01:17.118Z,8.48
2023-01-12T05:04:21.215Z,8.95
2023-01-12T05:07:25.099Z,7.35
2023-01-12T05:09:15.569Z,8.00
2023-01-12T05:10:54.100Z,8.68
2023-01-12T05:12:26.153Z,9.00
2023-01-12T05:13:58.401Z,8.27
2023-01-12T05:15:30.523Z,8.35
2023-01-12T05:17:05.478Z,7.32
2023-01-12T05:18:37.835Z,8.98
2023-01-12T05:20:10.545Z,9.23
2023-01-12T05:21:45.057Z,9.57
2023-01-12T05:23:17.137Z,9.73
2023-01-12T05:24:49.324Z,9.07
2023-01-12T05:26:21.731Z,10.10
2023-01-12T05:27:58.130Z,8.93
2023-01-12T05:29:30.478Z,9.20
2023-01-12T05:31:13.802Z,11.75
2023-01-12T05:32:46.212Z,9.88
2023-01-12T05:34:22.120Z,11.60
2023-01-12T05:35:54.219Z,10.82
2023-01-12T05:37:26.299Z,10.93
2023-01-12T05:38:58.380Z,16.55
2023-01-12T05:40:30.412Z,17.02
2023-01-12T05:42:20.975Z,11.63
2023-01-12T05:43:53.236Z,12.27
2023-01-12T05:45:25.282Z,10.30
2023-01-12T05:46:57.338Z,10.65
2023-01-12T05:48:29.544Z,10.30
2023-01-12T05:50:01.592Z,11.07
2023-01-12T05:51:33.841Z,12.43
2023-01-12T05:53:05.942Z,10.93
2023-01-12T05:54:38.055Z,10.48
2023-01-12T05:56:13.059Z,9.00
2023-01-12T05:57:45.097Z,9.90
2023-01-12T05:59:17.322Z,11.10
2023-01-12T06:00:49.471Z,11.68
2023-01-12T06:02:21.977Z,10.18
2023-01-12T06:03:59.157Z,11.55
2023-01-12T06:05:31.203Z,11.80
2023-01-12T06:07:03.270Z,14.98
2023-01-12T06:08:35.309Z,12.35
2023-01-12T06:10:08.318Z,13.00
2023-01-12T06:11:58.951Z,11.75
2023-01-12T06:13:49.749Z,15.57
2023-01-12T06:15:21.735Z,12.93
2023-01-12T06:16:53.741Z,12.27
2023-01-12T06:18:25.777Z,14.65
2023-01-12T06:19:57.712Z,14.55
2023-01-12T06:21:29.789Z,15.75
2023-01-12T06:23:03.013Z,16.20
2023-01-12T06:24:35.332Z,16.85
2023-01-12T06:26:10.430Z,14.55
2023-01-12T06:27:42.646Z,14.98
2023-01-12T06:29:14.670Z,12.70
2023-01-12T06:30:46.782Z,15.25
2023-01-12T06:32:18.820Z,14.90
2023-01-12T06:33:50.814Z,14.98
2023-01-12T06:35:22.773Z,12.85
2023-01-12T06:36:54.856Z,12.85
2023-01-12T06:38:28.504Z,14.95
2023-01-12T06:41:53.436Z,10.32
2023-01-12T06:43:25.538Z,12.80
2023-01-12T06:45:04.147Z,12.07
2023-01-12T06:46:36.217Z,12.80
2023-01-12T06:48:08.650Z,12.25
2023-01-12T06:49:40.704Z,12.60
2023-01-12T06:51:12.737Z,14.80
2023-01-12T06:52:44.808Z,11.48
2023-01-12T06:54:19.978Z,11.00
2023-01-12T06:55:52.064Z,13.30
2023-01-12T06:57:24.151Z,12.98
2023-01-12T06:58:56.450Z,11.65
2023-01-12T07:00:28.485Z,13.48
2023-01-12T07:02:00.554Z,11.95
2023-01-12T07:03:32.648Z,11.73
2023-01-12T07:05:05.225Z,12.82
2023-01-12T07:06:37.323Z,13.50
2023-01-12T07:08:09.318Z,11.55
2023-01-12T07:09:41.379Z,10.57
2023-01-12T07:11:15.417Z,11.65
2023-01-12T07:12:47.471Z,14.13
2023-01-12T07:15:51.536Z,11.45
2023-01-12T07:17:23.689Z,11.55
2023-01-12T07:18:55.748Z,11.70
2023-01-12T07:20:28.960Z,12.55
2023-01-12T07:22:00.901Z,11.13
2023-01-12T07:23:38.060Z,10.82
2023-01-12T07:25:10.544Z,11.73
2023-01-12T07:26:42.758Z,13.73
2023-01-12T07:28:15.022Z,12.30
2023-01-12T07:29:47.153Z,13.00
2023-01-12T07:31:19.647Z,11.50
2023-01-12T07:32:52.515Z,13.88
2023-01-12T07:34:24.637Z,12.48
2023-01-12T07:36:01.585Z,13.85
2023-01-12T07:37:33.580Z,12.93
2023-01-12T07:39:05.854Z,12.93
2023-01-12T07:40:38.560Z,12.57
2023-01-12T07:42:26.069Z,14.35
2023-01-12T07:43:58.120Z,13.18
2023-01-12T07:45:31.033Z,13.15
2023-01-12T07:47:03.120Z,15.02
2023-01-12T07:48:35.478Z,13.25
2023-01-12T07:50:07.983Z,13.55
2023-01-12T07:51:40.138Z,13.05
2023-01-12T07:53:12.124Z,13.43
2023-01-12T07:54:44.238Z,13.02
2023-01-12T07:56:16.576Z,13.65
2023-01-12T07:58:03.483Z,14.10
2023-01-12T07:59:35.617Z,12.95
2023-01-12T08:01:07.763Z,14.52
2023-01-12T08:02:39.775Z,13.23
2023-01-12T08:04:11.781Z,13.50
2023-01-12T08:05:43.927Z,13.32
2023-01-12T08:07:16.040Z,14.38
2023-01-12T08:08:48.081Z,13.65
2023-01-12T08:10:20.467Z,14.98
2023-01-12T08:11:52.580Z,14.30
2023-01-12T08:13:25.974Z,13.38
2023-01-12T08:14:58.196Z,14.73
2023-01-12T08:16:33.987Z,12.68
2023-01-12T08:18:10.013Z,12.60
2023-01-12T08:19:51.170Z,12.25
2023-01-12T08:21:27.074Z,13.02
2023-01-12T08:23:03.106Z,14.43
2023-01-12T08:24:37.536Z,12.95
2023-01-12T08:26:14.821Z,12.07
2023-01-12T08:27:50.702Z,15.52
2023-01-12T08:29:31.192Z,14.85
2023-01-12T08:31:06.318Z,12.80
2023-01-12T08:32:39.334Z,13.07
2023-01-12T08:34:11.675Z,15.52
2023-01-12T08:35:44.501Z,13.27
2023-01-12T08:37:18.684Z,12.80
2023-01-12T08:38:50.839Z,12.98
2023-01-12T08:40:24.049Z,11.77
2023-01-12T08:41:56.348Z,13.45
2023-01-12T08:43:46.809Z,14.88
2023-01-12T08:45:21.995Z,12.75
2023-01-12T08:48:38.314Z,12.40
2023-01-12T08:50:11.495Z,11.68
2023-01-12T08:51:43.861Z,10.90
2023-01-12T08:53:16.025Z,11.18
2023-01-12T08:54:48.266Z,11.85
2023-01-12T08:56:20.372Z,13.02
2023-01-12T08:57:54.776Z,11.80
2023-01-12T08:59:26.831Z,12.43
2023-01-12T09:01:16.089Z,11.93
2023-01-12T09:02:48.475Z,10.48
2023-01-12T09:04:20.659Z,12.25
2023-01-12T09:05:52.920Z,10.70
2023-01-12T09:07:25.021Z,11.40
2023-01-12T09:09:01.794Z,11.00
2023-01-12T09:10:33.914Z,9.75
2023-01-12T09:12:06.523Z,11.70
2023-01-12T09:13:38.864Z,11.33
2023-01-12T09:15:13.562Z,11.38
2023-01-12T09:18:19.097Z,12.95
2023-01-12T09:19:51.989Z,12.60
2023-01-12T09:21:26.140Z,13.48
2023-01-12T09:22:58.186Z,14.20
2023-01-12T09:24:30.336Z,12.88
2023-01-12T09:26:32.391Z,12.70
2023-01-12T09:28:04.576Z,11.65
2023-01-12T09:29:36.692Z,12.20
2023-01-12T09:31:10.879Z,13.10
2023-01-12T09:32:43.006Z,12.48
2023-01-12T09:34:15.155Z,12.95
2023-01-12T09:35:47.144Z,13.52
2023-01-12T09:37:19.316Z,12.30
2023-01-12T09:38:51.570Z,13.02
2023-01-12T09:40:23.694Z,12.27
2023-01-12T09:42:14.760Z,14.00
2023-01-12T09:44:05.458Z,12.93
2023-01-12T09:45:59.101Z,12.35
2023-01-12T09:47:41.195Z,12.47
2023-01-12T09:49:14.015Z,12.32
2023-01-12T09:51:08.665Z,11.57
2023-01-12T09:52:51.223Z,12.57
2023-01-12T09:54:23.270Z,11.45
2023-01-12T09:56:16.648Z,11.82
2023-01-12T09:58:13.213Z,11.10
2023-01-12T10:00:06.602Z,11.43
2023-01-12T10:01:39.085Z,10.93
2023-01-12T10:03:11.266Z,11.48
2023-01-12T10:04:43.793Z,12.68
2023-01-12T10:06:17.885Z,9.77
2023-01-12T10:07:50.397Z,9.93
2023-01-12T10:09:23.206Z,10.02
2023-01-12T10:11:27.498Z,11.48
2023-01-12T10:13:04.009Z,16.92
2023-01-12T10:15:05.218Z,13.32
2023-01-12T10:16:43.218Z,14.35
2023-01-12T10:18:25.075Z,17.02
2023-01-12T10:20:04.311Z,14.45
2023-01-12T10:21:36.435Z,15.13
2023-01-12T10:23:08.398Z,16.90
2023-01-12T10:24:41.168Z,16.52
2023-01-12T10:26:23.532Z,16.40
2023-01-12T10:27:58.645Z,14.35
2023-01-12T10:29:33.751Z,15.52
2023-01-12T10:31:11.561Z,14.55
2023-01-12T10:32:43.876Z,15.88
2023-01-12T10:34:15.924Z,12.77
2023-01-12T10:35:51.363Z,15.20
2023-01-12T10:37:23.409Z,16.17
2023-01-12T10:39:03.721Z,15.98
2023-01-12T10:40:36.055Z,16.23
2023-01-12T10:42:38.873Z,17.23
2023-01-12T10:44:16.047Z,16.00
2023-01-12T10:47:26.129Z,15.75
2023-01-12T10:49:22.306Z,14.85
2023-01-12T10:51:02.614Z,17.67
2023-01-12T10:52:40.267Z,20.42
2023-01-12T10:54:20.228Z,18.27
2023-01-12T10:55:52.358Z,21.95
2023-01-12T10:57:25.526Z,17.83
2023-01-12T10:59:25.477Z,17.42
2023-01-12T11:00:58.190Z,14.75
2023-01-12T11:02:45.745Z,15.27
2023-01-12T11:04:23.178Z,12.98
2023-01-12T11:05:55.207Z,12.02
2023-01-12T11:07:31.895Z,13.90
2023-01-12T11:09:25.194Z,12.27
2023-01-12T11:10:57.140Z,12.07
2023-01-12T11:12:39.028Z,12.45
2023-01-12T11:14:24.137Z,11.30
2023-01-12T11:16:23.776Z,14.73
2023-01-12T11:18:26.569Z,15.13
2023-01-12T11:20:01.048Z,14.52
2023-01-12T11:21:36.143Z,16.38
2023-01-12T11:23:18.976Z,18.67
2023-01-12T11:25:05.697Z,17.77
2023-01-12T11:26:47.299Z,17.65
2023-01-12T11:28:24.373Z,15.38
2023-01-12T11:30:00.338Z,14.88
2023-01-12T11:31:38.743Z,15.80
2023-01-12T11:33:14.187Z,15.88
2023-01-12T11:34:58.408Z,16.15
2023-01-12T11:36:38.539Z,16.63
2023-01-12T11:38:18.946Z,18.20
2023-01-12T11:39:56.438Z,17.17
2023-01-12T11:41:39.266Z,15.52
2023-01-12T11:43:32.352Z,13.30
2023-01-12T11:45:14.522Z,14.20
2023-01-12T11:46:49.749Z,13.38
2023-01-12T11:48:31.195Z,13.52
2023-01-12T11:50:06.072Z,14.07
2023-01-12T11:51:38.278Z,14.13
2023-01-12T11:53:21.072Z,19.73
2023-01-12T11:54:53.378Z,17.63
2023-01-12T11:56:43.473Z,18.45
2023-01-12T11:58:30.386Z,14.15
2023-01-12T12:00:21.224Z,16.27
2023-01-12T12:02:33.282Z,15.23
2023-01-12T12:04:38.909Z,17.00
2023-01-12T12:06:22.464Z,15.60
2023-01-12T12:08:06.488Z,16.58
2023-01-12T12:09:42.652Z,22.05
2023-01-12T12:11:35.224Z,17.17
2023-01-12T12:13:19.406Z,16.20
2023-01-12T12:14:55.302Z,21.90
2023-01-12T12:17:06.006Z,18.33
2023-01-12T12:18:56.483Z,20.25
2023-01-12T12:20:46.987Z,20.15
2023-01-12T12:22:29.811Z,19.92
2023-01-12T12:24:20.238Z,41.25
2023-01-12T12:26:01.972Z,25.00
2023-01-12T12:27:38.671Z,38.40
2023-01-12T12:29:44.384Z,25.77
2023-01-12T12:31:27.972Z,23.10
2023-01-12T12:33:23.050Z,22.13
2023-01-12T12:35:19.376Z,21.25
2023-01-12T12:37:07.392Z,22.77
2023-01-12T12:38:51.105Z,24.13
2023-01-12T12:41:05.404Z,27.88
2023-01-12T12:43:09.361Z,26.92
2023-01-12T12:45:18.550Z,25.23
2023-01-12T12:46:55.844Z,17.95
2023-01-12T12:48:45.113Z,17.80
2023-01-12T12:50:31.099Z,17.48
2023-01-12T12:52:05.147Z,18.10
2023-01-12T12:53:41.920Z,17.30
2023-01-12T12:55:14.335Z,15.90
2023-01-12T12:56:46.913Z,19.13
2023-01-12T12:58:21.809Z,13.32
2023-01-12T12:59:57.156Z,13.05
2023-01-12T13:01:29.359Z,19.45
2023-01-12T13:03:01.577Z,13.15
2023-01-12T13:04:42.548Z,19.15
2023-01-12T13:06:30.433Z,16.63
2023-01-12T13:08:02.518Z,17.25
2023-01-12T13:09:36.850Z,13.88
2023-01-12T13:11:10.140Z,12.02
2023-01-12T13:12:42.293Z,11.95
2023-01-12T13:14:19.935Z,11.77
2023-01-12T13:16:12.008Z,13.45
2023-01-12T13:17:45.677Z,16.95
2023-01-12T13:21:26.789Z,21.27
2023-01-12T13:22:59.528Z,17.08
2023-01-12T13:24:53.274Z,14.45
2023-01-12T13:26:36.228Z,16.00
2023-01-12T13:28:08.287Z,13.73
2023-01-12T13:29:41.355Z,11.30
2023-01-12T13:31:32.993Z,12.27
2023-01-12T13:33:27.276Z,13.52
2023-01-12T13:34:59.409Z,11.98
2023-01-12T13:36:31.880Z,12.75
2023-01-12T13:38:22.213Z,15.38
2023-01-12T13:40:15.893Z,17.75
2023-01-12T13:42:08.840Z,17.73
2023-01-12T13:43:46.175Z,14.05
2023-01-12T13:45:20.095Z,12.35
2023-01-12T13:46:56.733Z,11.77
2023-01-12T13:48:30.385Z,24.50
2023-01-12T13:50:03.301Z,24.17
2023-01-12T13:51:35.392Z,24.65
2023-01-12T13:53:22.022Z,21.67
2023-01-12T13:54:54.153Z,22.33
2023-01-12T13:56:26.853Z,19.52
2023-01-12T13:58:00.138Z,21.30
2023-01-12T13:59:33.184Z,18.75
2023-01-12T14:01:06.414Z,17.48
2023-01-12T14:02:39.589Z,18.85
2023-01-12T14:04:14.462Z,17.67
2023-01-12T14:06:31.171Z,18.67
2023-01-12T14:08:26.108Z,19.05
2023-01-12T14:10:23.338Z,20.63
2023-01-12T14:12:20.590Z,18.27
2023-01-12T14:14:29.103Z,20.83
2023-01-12T14:16:20.971Z,23.13
2023-01-12T14:18:12.943Z,22.38
2023-01-12T14:19:50.854Z,20.63
2023-01-12T14:21:33.641Z,23.58
2023-01-12T14:23:29.667Z,21.38
2023-01-12T14:25:20.902Z,18.35
2023-01-12T14:26:52.919Z,21.63
2023-01-12T14:28:25.942Z,20.75
2023-01-12T14:29:57.998Z,17.40
2023-01-12T14:31:48.852Z,18.33
2023-01-12T14:33:23.537Z,18.77
2023-01-12T14:34:55.603Z,13.68
2023-01-12T14:36:42.750Z,15.15
2023-01-12T14:38:18.866Z,17.08
2023-01-12T14:39:51.060Z,16.15
2023-01-12T14:41:45.283Z,15.98
2023-01-12T14:43:36.187Z,15.10
2023-01-12T14:45:46.345Z,17.88
2023-01-12T14:47:29.667Z,16.52
2023-01-12T14:49:04.790Z,14.27
2023-01-12T14:50:37.228Z,15.75
2023-01-12T14:52:22.977Z,14.40
2023-01-12T14:53:58.003Z,15.27
2023-01-12T14:55:42.146Z,16.27
2023-01-12T14:59:24.877Z,11.30
2023-01-12T15:00:57.008Z,10.50
2023-01-12T15:02:40.754Z,13.65
2023-01-12T15:04:19.027Z,13.30
2023-01-12T15:05:55.373Z,14.02
2023-01-12T15:07:33.253Z,19.33
2023-01-12T15:09:05.862Z,19.88
2023-01-12T15:10:45.330Z,19.25
2023-01-12T15:12:35.326Z,21.13
2023-01-12T15:14:22.090Z,22.13
2023-01-12T15:16:14.569Z,31.58
2023-01-12T15:18:05.291Z,39.25
2023-01-12T15:19:56.004Z,27.20
2023-01-12T15:21:47.258Z,30.92
2023-01-12T15:23:38.994Z,30.17
2023-01-12T15:25:35.367Z,30.05
2023-01-12T15:27:08.490Z,33.63
2023-01-12T15:28:41.342Z,37.92
2023-01-12T15:30:13.687Z,37.97
2023-01-12T15:31:45.764Z,36.83
2023-01-12T15:33:17.874Z,45.15
2023-01-12T15:34:49.923Z,47.97
2023-01-12T15:36:21.953Z,35.08
2023-01-12T15:37:56.328Z,48.00
2023-01-12T15:39:31.671Z,39.25
2023-01-12T15:41:04.541Z,41.65
2023-01-12T15:42:36.617Z,41.65
2023-01-12T15:44:13.629Z,43.33
2023-01-12T15:45:47.174Z,42.92
2023-01-12T15:48:51.256Z,38.90
2023-01-12T15:50:23.902Z,40.60
2023-01-12T15:51:55.992Z,43.30
2023-01-12T15:53:28.101Z,43.65
2023-01-12T15:55:00.189Z,42.92
2023-01-12T15:56:32.249Z,41.25
2023-01-12T15:58:04.313Z,42.95
2023-01-12T15:59:36.377Z,46.80
2023-01-12T16:01:10.891Z,42.17
2023-01-12T16:02:45.739Z,40.15
2023-01-12T16:06:15.022Z,33.25
2023-01-12T16:07:48.771Z,33.97
2023-01-12T16:09:21.177Z,35.35
2023-01-12T16:11:13.759Z,33.17
2023-01-12T16:12:48.259Z,31.23
2023-01-12T16:14:20.385Z,29.80
2023-01-12T16:15:52.628Z,32.28
2023-01-12T16:17:25.306Z,27.85
2023-01-12T16:19:00.558Z,28.63
2023-01-12T16:20:32.724Z,27.20
2023-01-12T16:22:04.790Z,30.45
2023-01-12T16:23:37.935Z,27.55
2023-01-12T16:25:10.833Z,31.50
2023-01-12T16:28:21.427Z,34.08
2023-01-12T16:29:54.207Z,41.22
2023-01-12T16:31:26.284Z,35.83
2023-01-12T16:32:59.175Z,34.25
2023-01-12T16:34:31.291Z,31.75
2023-01-12T16:36:03.704Z,35.08
2023-01-12T16:37:35.854Z,28.90
2023-01-12T16:39:07.919Z,30.48
2023-01-12T16:40:43.672Z,26.17
2023-01-12T16:42:15.883Z,28.50
2023-01-12T16:43:48.618Z,32.47
2023-01-12T16:45:20.780Z,24.63
2023-01-12T16:46:53.453Z,31.23
2023-01-12T16:48:27.990Z,47.30
2023-01-12T16:50:00.328Z,59.08
2023-01-12T16:51:34.961Z,60.38
2023-01-12T16:53:07.860Z,36.20
2023-01-12T16:54:43.023Z,36.28
2023-01-12T16:57:46.956Z,40.15
2023-01-12T16:59:19.064Z,38.50
2023-01-12T17:00:51.289Z,39.17
2023-01-12T17:02:23.642Z,46.58
2023-01-12T17:03:58.484Z,46.30
2023-01-12T17:05:31.285Z,50.00
2023-01-12T17:07:05.116Z,53.40
2023-01-12T17:08:37.393Z,45.47
2023-01-12T17:10:10.109Z,40.47
2023-01-12T17:11:44.127Z,43.25
2023-01-12T17:13:16.321Z,44.47
2023-01-12T17:14:48.497Z,41.45
2023-01-12T17:16:22.651Z,31.58
2023-01-12T17:17:55.265Z,33.13
2023-01-12T17:19:28.620Z,34.72
2023-01-12T17:21:02.202Z,36.95
2023-01-12T17:24:07.081Z,34.83
2023-01-12T17:25:39.245Z,39.70
2023-01-12T17:27:12.516Z,39.45
2023-01-12T17:28:45.403Z,41.42
2023-01-12T17:30:17.884Z,45.67
2023-01-12T17:31:50.370Z,41.60
2023-01-12T17:33:22.519Z,45.70
2023-01-12T17:34:55.468Z,45.95
2023-01-12T17:36:27.584Z,46.60
2023-01-12T17:38:00.174Z,47.15
2023-01-12T17:39:32.230Z,47.90
2023-01-12T17:41:34.588Z,49.20
2023-01-12T17:43:08.877Z,48.92
2023-01-12T17:44:42.455Z,49.15
2023-01-12T17:47:50.630Z,46.80
2023-01-12T17:49:25.153Z,49.10
2023-01-12T17:50:57.467Z,49.45
2023-01-12T17:52:29.673Z,49.47
2023-01-12T17:54:03.324Z,50.85
2023-01-12T17:57:20.391Z,95.43
2023-01-12T17:58:53.526Z,104.93
2023-01-12T18:00:25.642Z,85.35
2023-01-12T18:01:58.316Z,69.82
2023-01-12T18:03:30.468Z,59.67
2023-01-12T18:05:02.729Z,56.88
2023-01-12T18:06:34.887Z,55.33
2023-01-12T18:08:06.899Z,47.83
2023-01-12T18:09:39.205Z,47.38
2023-01-12T18:11:11.578Z,44.72
2023-01-12T18:12:43.741Z,40.45
2023-01-12T18:14:15.930Z,42.25
2023-01-12T18:15:48.113Z,46.63
2023-01-12T18:17:20.277Z,45.05
2023-01-12T18:18:52.630Z,48.13
2023-01-12T18:20:24.825Z,47.95
2023-01-12T18:21:56.906Z,44.40
2023-01-12T18:23:30.790Z,40.20
2023-01-12T18:25:03.148Z,41.92
2023-01-12T18:26:36.367Z,41.88
2023-01-12T18:28:08.523Z,41.63
2023-01-12T18:29:41.540Z,39.08
2023-01-12T18:31:19.312Z,47.08
2023-01-12T18:32:51.539Z,45.83
2023-01-12T18:34:23.610Z,49.85
2023-01-12T18:35:55.802Z,42.80
2023-01-12T18:37:27.902Z,43.92
2023-01-12T18:39:00.252Z,47.58
2023-01-12T18:40:32.950Z,48.10
2023-01-12T18:42:23.512Z,50.45
2023-01-12T18:43:55.754Z,52.90
2023-01-12T18:45:28.597Z,50.42
2023-01-12T18:47:20.646Z,56.00
2023-01-12T18:48:52.669Z,50.67
2023-01-12T18:50:43.223Z,50.92
2023-01-12T18:52:36.063Z,46.30
2023-01-12T18:54:08.117Z,41.80
2023-01-12T18:55:41.599Z,42.78
2023-01-12T18:57:19.497Z,44.90
2023-01-12T18:58:51.905Z,39.63
2023-01-12T19:00:24.004Z,36.63
2023-01-12T19:01:56.793Z,29.98
2023-01-12T19:03:28.904Z,34.42
2023-01-12T19:05:20.297Z,29.50
2023-01-12T19:07:00.275Z,22.25
2023-01-12T19:08:58.672Z,23.42
2023-01-12T19:10:31.964Z,22.75
2023-01-12T19:12:05.478Z,20.50
2023-01-12T19:15:46.445Z,21.27
2023-01-12T19:17:27.914Z,29.27
2023-01-12T19:18:59.944Z,27.92
2023-01-12T19:20:33.370Z,30.05
2023-01-12T19:22:24.010Z,27.02
2023-01-12T19:24:14.535Z,28.10
2023-01-12T19:27:41.253Z,22.17
2023-01-12T19:29:13.304Z,18.88
2023-01-12T19:30:46.927Z,19.40
2023-01-12T19:33:50.884Z,21.52
2023-01-12T19:35:22.990Z,25.55
2023-01-12T19:36:55.792Z,25.10
2023-01-12T19:38:27.835Z,23.40
2023-01-12T19:40:32.224Z,24.45
2023-01-12T19:42:23.165Z,28.60
2023-01-12T19:43:55.296Z,24.58
2023-01-12T19:45:27.327Z,26.30
2023-01-12T19:46:59.370Z,27.73
2023-01-12T19:48:32.905Z,25.13
2023-01-12T19:51:40.756Z,27.52
2023-01-12T19:53:15.233Z,21.42
2023-01-12T19:54:47.244Z,20.65
2023-01-12T19:56:19.242Z,20.05
2023-01-12T19:57:53.236Z,22.00
2023-01-12T19:59:27.689Z,23.15
2023-01-12T20:00:59.728Z,19.42
2023-01-12T20:02:31.869Z,19.63
2023-01-12T20:04:04.095Z,18.85
2023-01-12T20:05:39.990Z,17.30
2023-01-12T20:07:12.201Z,18.65
2023-01-12T20:08:44.528Z,19.25
2023-01-12T20:10:16.677Z,19.55
2023-01-12T20:11:54.657Z,22.88
2023-01-12T20:13:27.439Z,23.52
2023-01-12T20:14:59.550Z,22.20
2023-01-12T20:16:31.622Z,20.48
2023-01-12T20:18:03.967Z,22.95
2023-01-12T20:19:36.603Z,26.30
2023-01-12T20:21:09.691Z,20.40
2023-01-12T20:22:42.242Z,19.38
2023-01-12T20:24:14.347Z,21.38
2023-01-12T20:25:46.487Z,19.55
2023-01-12T20:27:18.828Z,18.27
2023-01-12T20:28:50.969Z,16.98
2023-01-12T20:30:36.868Z,18.13
2023-01-12T20:32:09.891Z,18.08
2023-01-12T20:33:42.557Z,18.30
2023-01-12T20:35:18.332Z,16.77
2023-01-12T20:36:50.368Z,16.25
2023-01-12T20:38:23.125Z,15.13
2023-01-12T20:39:56.389Z,17.27
2023-01-12T20:41:28.467Z,17.48
2023-01-12T20:43:00.779Z,18.42
2023-01-12T20:44:33.949Z,17.67
2023-01-12T20:46:11.350Z,19.08
2023-01-12T20:47:43.504Z,22.15
2023-01-12T20:49:15.821Z,19.00
2023-01-12T20:50:48.176Z,20.25
2023-01-12T20:52:20.963Z,19.13
2023-01-12T20:53:53.058Z,23.42
2023-01-12T20:55:25.751Z,24.00
2023-01-12T20:57:00.758Z,24.80
2023-01-12T20:58:32.958Z,25.67
2023-01-12T21:00:07.151Z,24.13
2023-01-12T21:01:39.328Z,22.20
2023-01-12T21:03:11.472Z,23.60
2023-01-12T21:04:43.728Z,28.98
2023-01-12T21:06:17.646Z,27.77
2023-01-12T21:07:52.026Z,26.33
2023-01-12T21:09:26.240Z,25.90
2023-01-12T21:10:59.036Z,24.92
2023-01-12T21:12:31.092Z,26.05
2023-01-12T21:14:04.821Z,28.38
2023-01-12T21:15:36.888Z,24.33
2023-01-12T21:17:08.997Z,25.83
2023-01-12T21:18:41.777Z,27.80
2023-01-12T21:20:15.198Z,24.27
2023-01-12T21:21:47.183Z,26.15
2023-01-12T21:23:19.289Z,26.67
2023-01-12T21:24:53.805Z,25.75
2023-01-12T21:26:25.858Z,25.42
2023-01-12T21:27:57.916Z,28.23
2023-01-12T21:31:03.414Z,29.05
2023-01-12T21:32:35.377Z,34.63
2023-01-12T21:34:07.415Z,35.53
2023-01-12T21:35:39.769Z,38.03
2023-01-12T21:37:12.106Z,37.45
2023-01-12T21:38:44.204Z,37.97
2023-01-12T21:40:17.051Z,34.25
2023-01-12T21:42:07.873Z,41.35
2023-01-12T21:43:39.949Z,41.17
2023-01-12T21:45:11.974Z,45.72
2023-01-12T21:46:44.047Z,37.13
2023-01-12T21:48:18.109Z,33.13
2023-01-12T21:49:50.314Z,29.95
2023-01-12T21:51:22.343Z,31.13
2023-01-12T21:52:54.377Z,34.53
2023-01-12T21:54:26.391Z,28.55
2023-01-12T21:56:00.896Z,27.48
2023-01-12T21:57:32.941Z,28.80
2023-01-12T21:59:05.251Z,24.58
2023-01-12T22:00:37.287Z,28.58